createdAt,value
2019-05-07T00:01:17.392Z,9.07
2019-05-07T00:03:46.704Z,9.67
2019-05-07T00:06:16.046Z,13.37
2019-05-07T00:08:45.601Z,9.70
2019-05-07T00:11:14.466Z,12.53
2019-05-07T00:13:44.446Z,9.50
2019-05-07T00:16:14.053Z,10.47
2019-05-07T00:18:43.062Z,11.33
2019-05-07T00:21:12.700Z,12.93
2019-05-07T00:23:43.202Z,10.93
2019-05-07T00:26:13.365Z,10.50
2019-05-07T00:28:43.414Z,10.67
2019-05-07T00:31:13.295Z,9.10
2019-05-07T00:33:43.365Z,14.20
2019-05-07T00:36:32.392Z,8.97
2019-05-07T00:39:13.527Z,10.90
2019-05-07T00:41:48.244Z,10.50
2019-05-07T00:44:17.985Z,12.30
2019-05-07T00:46:47.295Z,13.77
2019-05-07T00:49:16.209Z,10.67
2019-05-07T00:51:45.183Z,11.87
2019-05-07T00:54:14.424Z,10.53
2019-05-07T00:56:43.972Z,10.80
2019-05-07T00:59:13.488Z,12.60
2019-05-07T01:01:43.357Z,11.90
2019-05-07T01:04:13.116Z,14.70
2019-05-07T01:06:42.502Z,13.27
2019-05-07T01:09:12.306Z,10.50
2019-05-07T01:11:42.931Z,11.00
2019-05-07T01:14:12.441Z,10.20
2019-05-07T01:16:42.186Z,15.20
2019-05-07T01:19:12.562Z,11.07
2019-05-07T01:21:43.216Z,15.67
2019-05-07T01:24:12.408Z,11.30
2019-05-07T01:26:42.709Z,14.00
2019-05-07T01:29:12.793Z,15.20
2019-05-07T01:31:48.309Z,10.07
2019-05-07T01:34:42.929Z,11.20
2019-05-07T01:37:12.445Z,13.40
2019-05-07T01:39:42.364Z,11.17
2019-05-07T01:42:12.743Z,9.70
2019-05-07T01:44:42.083Z,10.30
2019-05-07T01:47:13.073Z,10.93
2019-05-07T01:49:42.397Z,11.97
2019-05-07T01:52:13.297Z,11.17
2019-05-07T01:54:43.088Z,11.47
2019-05-07T01:57:12.451Z,9.93
2019-05-07T01:59:42.772Z,10.57
2019-05-07T02:02:19.623Z,10.63
2019-05-07T02:04:56.243Z,15.53
2019-05-07T02:07:29.715Z,12.20
2019-05-07T02:10:27.407Z,12.60
2019-05-07T02:12:56.633Z,13.70
2019-05-07T02:15:25.875Z,13.07
2019-05-07T02:17:55.217Z,11.57
2019-05-07T02:20:24.416Z,14.37
2019-05-07T02:22:54.496Z,14.00
2019-05-07T02:25:23.796Z,12.20
2019-05-07T02:27:53.335Z,13.80
2019-05-07T02:30:23.815Z,13.20
2019-05-07T02:32:53.924Z,12.00
2019-05-07T02:35:23.787Z,12.30
2019-05-07T02:38:03.205Z,11.13
2019-05-07T02:40:53.433Z,11.27
2019-05-07T02:43:22.827Z,18.30
2019-05-07T02:46:22.371Z,10.93
2019-05-07T02:48:53.720Z,16.10
2019-05-07T02:51:28.684Z,13.57
2019-05-07T02:54:17.300Z,13.40
2019-05-07T02:56:46.596Z,13.83
2019-05-07T02:59:15.827Z,15.63
2019-05-07T03:01:45.351Z,12.80
2019-05-07T03:04:14.847Z,15.10
2019-05-07T03:06:44.496Z,14.67
2019-05-07T03:09:14.647Z,13.17
2019-05-07T03:11:44.207Z,14.10
2019-05-07T03:14:13.901Z,13.83
2019-05-07T03:16:48.502Z,15.10
2019-05-07T03:19:14.209Z,17.20
2019-05-07T03:21:56.333Z,13.03
2019-05-07T03:24:44.717Z,20.00
2019-05-07T03:27:14.435Z,16.63
2019-05-07T03:29:47.494Z,23.00
2019-05-07T03:32:37.744Z,16.77
2019-05-07T03:35:27.180Z,15.70
2019-05-07T03:37:57.332Z,16.00
2019-05-07T03:40:26.443Z,16.20
2019-05-07T03:42:56.077Z,17.10
2019-05-07T03:45:47.592Z,14.50
2019-05-07T03:48:23.434Z,17.00
2019-05-07T03:50:52.796Z,16.30
2019-05-07T03:53:23.365Z,16.80
2019-05-07T03:55:53.836Z,16.23
2019-05-07T03:58:23.878Z,16.30
2019-05-07T04:00:53.968Z,15.50
2019-05-07T04:03:24.822Z,15.97
2019-05-07T04:06:13.533Z,13.63
2019-05-07T04:08:43.471Z,16.20
2019-05-07T04:11:13.979Z,17.00
2019-05-07T04:13:44.283Z,20.13
2019-05-07T04:16:13.806Z,17.93
2019-05-07T04:18:44.044Z,15.60
2019-05-07T04:21:14.140Z,22.33
2019-05-07T04:23:43.892Z,17.33
2019-05-07T04:26:23.155Z,14.80
2019-05-07T04:29:05.943Z,16.53
2019-05-07T04:31:42.898Z,14.87
2019-05-07T04:34:15.763Z,20.07
2019-05-07T04:36:47.375Z,16.00
2019-05-07T04:39:17.263Z,17.60
2019-05-07T04:41:47.206Z,16.73
2019-05-07T04:44:16.522Z,15.03
2019-05-07T04:46:48.100Z,17.20
2019-05-07T04:49:17.004Z,19.47
2019-05-07T04:51:55.503Z,13.67
2019-05-07T04:54:25.188Z,15.50
2019-05-07T04:56:54.410Z,16.97
2019-05-07T04:59:23.980Z,15.20
2019-05-07T05:01:59.759Z,16.27
2019-05-07T05:04:33.482Z,19.60
2019-05-07T05:07:02.536Z,16.70
2019-05-07T05:09:32.928Z,15.33
2019-05-07T05:12:02.716Z,15.50
2019-05-07T05:14:33.716Z,19.33
2019-05-07T05:17:02.744Z,19.40
2019-05-07T05:19:32.405Z,17.13
2019-05-07T05:22:08.527Z,17.10
2019-05-07T05:24:42.443Z,18.10
2019-05-07T05:27:12.225Z,14.70
2019-05-07T05:29:43.007Z,13.60
2019-05-07T05:32:12.364Z,15.70
2019-05-07T05:34:42.572Z,17.70
2019-05-07T05:37:11.990Z,17.90
2019-05-07T05:39:42.678Z,16.00
2019-05-07T05:42:33.031Z,19.83
2019-05-07T05:45:02.455Z,18.20
2019-05-07T05:47:37.391Z,19.23
2019-05-07T05:50:09.552Z,15.93
2019-05-07T05:52:46.203Z,15.23
2019-05-07T05:55:18.027Z,17.80
2019-05-07T05:58:06.718Z,19.60
2019-05-07T06:00:57.592Z,21.70
2019-05-07T06:03:44.536Z,21.27
2019-05-07T06:06:34.308Z,20.03
2019-05-07T06:09:21.921Z,20.30
2019-05-07T06:12:12.573Z,22.10
2019-05-07T06:14:53.965Z,19.83
2019-05-07T06:17:44.324Z,22.13
2019-05-07T06:20:38.655Z,19.83
2019-05-07T06:23:24.502Z,24.47
2019-05-07T06:25:53.506Z,20.30
2019-05-07T06:28:22.588Z,20.60
2019-05-07T06:30:52.757Z,20.47
2019-05-07T06:33:22.964Z,22.40
2019-05-07T06:35:52.904Z,23.10
2019-05-07T06:38:22.868Z,20.50
2019-05-07T06:41:12.180Z,23.63
2019-05-07T06:43:45.916Z,19.60
2019-05-07T06:46:14.987Z,16.23
2019-05-07T06:48:46.263Z,22.10
2019-05-07T06:51:17.532Z,20.70
2019-05-07T06:53:46.624Z,19.83
2019-05-07T06:56:15.816Z,19.90
2019-05-07T06:58:54.027Z,20.43
2019-05-07T07:01:42.418Z,22.93
2019-05-07T07:04:48.836Z,20.13
2019-05-07T07:07:42.157Z,19.50
2019-05-07T07:10:29.323Z,21.60
2019-05-07T07:12:58.551Z,18.40
2019-05-07T07:15:27.571Z,21.60
2019-05-07T07:17:57.020Z,24.27
2019-05-07T07:20:26.217Z,18.33
2019-05-07T07:22:55.071Z,19.43
2019-05-07T07:25:24.716Z,20.03
2019-05-07T07:27:54.116Z,20.20
2019-05-07T07:30:32.462Z,23.60
2019-05-07T07:33:02.786Z,20.07
2019-05-07T07:35:32.289Z,21.73
2019-05-07T07:38:02.820Z,19.67
2019-05-07T07:40:45.192Z,18.40
2019-05-07T07:43:14.379Z,22.33
2019-05-07T07:45:44.025Z,17.57
2019-05-07T07:48:13.353Z,17.93
2019-05-07T07:50:42.708Z,20.43
2019-05-07T07:53:13.012Z,19.67
2019-05-07T07:56:03.007Z,18.23
2019-05-07T07:58:51.938Z,17.60
2019-05-07T08:01:45.600Z,18.10
2019-05-07T08:04:15.319Z,23.87
2019-05-07T08:06:45.279Z,23.07
2019-05-07T08:09:15.101Z,18.10
2019-05-07T08:11:44.580Z,22.07
2019-05-07T08:14:13.575Z,18.47
2019-05-07T08:16:43.323Z,22.13
2019-05-07T08:19:21.514Z,18.27
2019-05-07T08:21:43.779Z,17.70
2019-05-07T08:24:13.119Z,19.00
2019-05-07T08:26:42.990Z,19.03
2019-05-07T08:29:12.669Z,16.77
2019-05-07T08:31:51.605Z,15.90
2019-05-07T08:34:25.115Z,16.07
2019-05-07T08:36:55.056Z,19.17
2019-05-07T08:39:25.121Z,15.50
2019-05-07T08:41:54.750Z,17.67
2019-05-07T08:44:28.225Z,18.07
2019-05-07T08:47:16.184Z,18.23
2019-05-07T08:49:45.363Z,20.07
2019-05-07T08:52:14.656Z,17.80
2019-05-07T08:54:45.002Z,20.77
2019-05-07T08:57:13.938Z,18.50
2019-05-07T08:59:57.210Z,15.07
2019-05-07T09:02:14.113Z,20.10
2019-05-07T09:04:42.984Z,16.33
2019-05-07T09:07:13.161Z,18.70
2019-05-07T09:09:42.881Z,18.37
2019-05-07T09:12:12.608Z,20.00
2019-05-07T09:14:42.536Z,17.50
2019-05-07T09:17:12.830Z,21.93
2019-05-07T09:19:50.849Z,16.37
2019-05-07T09:22:13.112Z,18.60
2019-05-07T09:24:42.729Z,13.43
2019-05-07T09:27:22.144Z,14.67
2019-05-07T09:30:08.593Z,17.70
2019-05-07T09:32:43.744Z,15.13
2019-05-07T09:35:16.765Z,16.63
2019-05-07T09:37:45.743Z,13.17
2019-05-07T09:40:15.401Z,17.43
2019-05-07T09:42:44.383Z,18.23
2019-05-07T09:45:14.099Z,18.07
2019-05-07T09:47:43.395Z,16.63
2019-05-07T09:50:12.545Z,17.23
2019-05-07T09:52:42.710Z,15.87
2019-05-07T09:55:17.229Z,14.70
2019-05-07T09:57:44.079Z,16.17
2019-05-07T10:00:14.499Z,12.90
2019-05-07T10:02:43.932Z,14.60
2019-05-07T10:05:14.733Z,17.13
2019-05-07T10:07:43.991Z,14.13
2019-05-07T10:10:13.038Z,17.47
2019-05-07T10:12:52.537Z,15.07
2019-05-07T10:15:22.543Z,16.10
2019-05-07T10:18:12.370Z,18.80
2019-05-07T10:20:42.192Z,17.03
2019-05-07T10:23:19.563Z,14.83
2019-05-07T10:25:53.626Z,15.43
2019-05-07T10:28:23.520Z,12.80
2019-05-07T10:30:53.640Z,17.87
2019-05-07T10:33:22.955Z,13.90
2019-05-07T10:35:52.943Z,11.37
2019-05-07T10:38:22.203Z,15.07
2019-05-07T10:40:51.775Z,13.93
2019-05-07T10:43:22.242Z,13.27
2019-05-07T10:46:31.813Z,13.63
2019-05-07T10:49:13.764Z,12.97
2019-05-07T10:51:43.129Z,14.40
2019-05-07T10:54:12.685Z,12.80
2019-05-07T10:56:42.431Z,12.97
2019-05-07T10:59:12.237Z,13.70
2019-05-07T11:01:57.258Z,10.50
2019-05-07T11:04:39.419Z,10.70
2019-05-07T11:06:57.916Z,11.00
2019-05-07T11:09:26.799Z,9.00
2019-05-07T11:11:56.044Z,8.10
2019-05-07T11:14:25.270Z,10.77
2019-05-07T11:17:03.459Z,9.20
2019-05-07T11:19:32.704Z,11.30
2019-05-07T11:22:04.675Z,10.80
2019-05-07T11:24:33.476Z,10.10
2019-05-07T11:27:04.136Z,9.47
2019-05-07T11:29:36.404Z,12.37
2019-05-07T11:32:04.480Z,9.40
2019-05-07T11:34:36.588Z,8.20
2019-05-07T11:37:06.000Z,8.50
2019-05-07T11:39:35.156Z,11.00
2019-05-07T11:42:35.340Z,9.83
2019-05-07T11:45:06.202Z,8.97
2019-05-07T11:47:35.544Z,9.77
2019-05-07T11:50:22.728Z,9.90
2019-05-07T11:52:56.791Z,8.23
2019-05-07T11:55:25.620Z,8.37
2019-05-07T11:57:54.956Z,6.13
2019-05-07T12:00:32.429Z,5.77
2019-05-07T12:03:04.828Z,6.13
2019-05-07T12:05:34.124Z,6.10
2019-05-07T12:08:03.294Z,5.27
2019-05-07T12:10:32.892Z,8.20
2019-05-07T12:13:02.708Z,5.50
2019-05-07T12:15:32.453Z,5.50
2019-05-07T12:18:03.097Z,8.53
2019-05-07T12:20:32.964Z,6.30
2019-05-07T12:23:02.895Z,5.67
2019-05-07T12:25:32.591Z,6.60
2019-05-07T12:28:02.463Z,4.93
2019-05-07T12:30:53.767Z,6.77
2019-05-07T12:33:42.850Z,5.33
2019-05-07T12:36:13.183Z,8.13
2019-05-07T12:38:42.723Z,3.90
2019-05-07T12:41:33.156Z,4.73
2019-05-07T12:44:03.622Z,4.80
2019-05-07T12:46:33.434Z,4.80
2019-05-07T12:49:03.214Z,5.77
2019-05-07T12:51:38.011Z,4.07
2019-05-07T12:54:14.359Z,6.00
2019-05-07T12:56:43.519Z,4.47
2019-05-07T12:59:13.158Z,4.77
2019-05-07T13:02:21.653Z,7.33
2019-05-07T13:04:38.380Z,5.97
2019-05-07T13:07:15.658Z,4.27
2019-05-07T13:09:44.763Z,5.70
2019-05-07T13:12:14.369Z,5.00
2019-05-07T13:14:44.180Z,3.80
2019-05-07T13:17:13.689Z,5.40
2019-05-07T13:19:42.884Z,5.80
2019-05-07T13:22:13.036Z,5.33
2019-05-07T13:24:42.735Z,5.43
2019-05-07T13:27:11.678Z,5.20
2019-05-07T13:29:42.482Z,4.73
2019-05-07T13:32:13.869Z,5.23
2019-05-07T13:34:43.155Z,3.80
2019-05-07T13:37:16.911Z,3.53
2019-05-07T13:39:53.837Z,5.33
2019-05-07T13:42:52.278Z,5.40
2019-05-07T13:45:31.799Z,4.17
2019-05-07T13:48:08.777Z,3.80
2019-05-07T13:50:38.313Z,4.40
2019-05-07T13:53:07.469Z,5.00
2019-05-07T13:55:36.439Z,3.87
2019-05-07T13:58:05.536Z,3.80
2019-05-07T14:00:39.896Z,4.53
2019-05-07T14:03:09.246Z,6.73
2019-05-07T14:05:38.763Z,2.90
2019-05-07T14:08:07.888Z,3.43
2019-05-07T14:10:37.163Z,9.20
2019-05-07T14:13:11.495Z,3.50
2019-05-07T14:15:37.339Z,4.33
2019-05-07T14:18:06.565Z,16.27
2019-05-07T14:20:35.723Z,5.00
2019-05-07T14:23:05.024Z,14.33
2019-05-07T14:25:34.325Z,7.43
2019-05-07T14:28:03.209Z,4.17
2019-05-07T14:30:32.915Z,3.57
2019-05-07T14:33:14.319Z,3.43
2019-05-07T14:36:02.960Z,3.73
2019-05-07T14:38:42.627Z,3.70
2019-05-07T14:41:13.016Z,3.73
2019-05-07T14:43:48.106Z,4.33
2019-05-07T14:46:17.348Z,3.00
2019-05-07T14:48:46.373Z,3.70
2019-05-07T14:51:16.484Z,4.47
2019-05-07T14:53:45.414Z,5.40
2019-05-07T14:56:14.672Z,4.83
2019-05-07T14:58:45.099Z,3.50
2019-05-07T15:01:14.600Z,3.40
2019-05-07T15:03:43.916Z,3.60
2019-05-07T15:06:13.227Z,3.37
2019-05-07T15:08:42.942Z,4.37
2019-05-07T15:11:12.072Z,3.97
2019-05-07T15:13:42.742Z,4.10
2019-05-07T15:16:12.615Z,4.07
2019-05-07T15:18:55.875Z,4.90
2019-05-07T15:21:25.093Z,2.83
2019-05-07T15:23:56.647Z,2.80
2019-05-07T15:26:26.252Z,5.87
2019-05-07T15:29:05.719Z,3.50
2019-05-07T15:31:52.380Z,3.23
2019-05-07T15:34:22.154Z,8.23
2019-05-07T15:36:52.717Z,3.17
2019-05-07T15:39:22.310Z,3.97
2019-05-07T15:41:51.838Z,2.77
2019-05-07T15:44:21.243Z,3.30
2019-05-07T15:46:51.967Z,2.73
2019-05-07T15:49:21.681Z,4.47
2019-05-07T15:51:53.108Z,4.50
2019-05-07T15:54:23.097Z,3.60
2019-05-07T15:56:55.436Z,5.20
2019-05-07T15:59:24.826Z,3.23
2019-05-07T16:01:59.094Z,3.57
2019-05-07T16:04:27.911Z,3.07
2019-05-07T16:06:58.779Z,5.17
2019-05-07T16:09:30.141Z,7.13
2019-05-07T16:12:01.908Z,3.10
2019-05-07T16:14:32.147Z,3.50
2019-05-07T16:17:07.720Z,4.83
2019-05-07T16:19:36.823Z,4.07
2019-05-07T16:22:12.586Z,4.50
2019-05-07T16:24:41.075Z,3.93
2019-05-07T16:27:11.972Z,3.53
2019-05-07T16:29:42.110Z,3.37
2019-05-07T16:32:11.263Z,3.47
2019-05-07T16:34:42.746Z,3.60
2019-05-07T16:37:12.328Z,3.63
2019-05-07T16:39:42.117Z,3.07
2019-05-07T16:42:11.892Z,2.67
2019-05-07T16:44:41.811Z,4.77
2019-05-07T16:47:12.155Z,5.40
2019-05-07T16:49:42.522Z,3.23
2019-05-07T16:52:12.167Z,3.60
2019-05-07T16:54:44.941Z,3.93
2019-05-07T16:57:42.218Z,6.50
2019-05-07T17:00:15.911Z,3.23
2019-05-07T17:02:46.300Z,8.03
2019-05-07T17:05:15.751Z,3.57
2019-05-07T17:07:53.247Z,4.67
2019-05-07T17:10:22.550Z,3.33
2019-05-07T17:12:52.383Z,4.17
2019-05-07T17:15:22.828Z,3.67
2019-05-07T17:17:59.055Z,5.00
2019-05-07T17:20:28.348Z,4.33
2019-05-07T17:22:57.289Z,3.60
2019-05-07T17:25:38.604Z,3.80
2019-05-07T17:28:07.831Z,6.70
2019-05-07T17:30:37.719Z,8.97
2019-05-07T17:33:07.344Z,3.50
2019-05-07T17:35:36.651Z,4.07
2019-05-07T17:38:09.428Z,5.33
2019-05-07T17:40:37.599Z,7.77
2019-05-07T17:43:06.584Z,4.47
2019-05-07T17:45:36.407Z,8.20
2019-05-07T17:48:05.539Z,5.67
2019-05-07T17:50:42.548Z,5.27
2019-05-07T17:53:11.943Z,5.10
2019-05-07T17:55:42.343Z,5.70
2019-05-07T17:58:12.835Z,6.20
2019-05-07T18:00:44.282Z,5.20
2019-05-07T18:03:32.240Z,9.33
2019-05-07T18:06:02.549Z,5.73
2019-05-07T18:08:32.664Z,4.87
2019-05-07T18:11:02.490Z,5.07
2019-05-07T18:13:32.423Z,4.13
2019-05-07T18:16:22.187Z,4.20
2019-05-07T18:18:52.021Z,7.83
2019-05-07T18:21:22.067Z,8.60
2019-05-07T18:23:51.928Z,7.00
2019-05-07T18:26:29.909Z,5.40
2019-05-07T18:28:52.224Z,5.37
2019-05-07T18:31:32.719Z,5.50
2019-05-07T18:34:02.717Z,5.50
2019-05-07T18:36:31.737Z,7.70
2019-05-07T18:39:04.843Z,8.40
2019-05-07T18:41:34.231Z,5.13
2019-05-07T18:44:12.424Z,7.17
2019-05-07T18:46:34.202Z,8.27
2019-05-07T18:49:05.577Z,7.23
2019-05-07T18:51:35.123Z,6.10
2019-05-07T18:54:04.411Z,6.03
2019-05-07T18:56:33.334Z,9.03
2019-05-07T18:59:02.652Z,7.30
2019-05-07T19:01:33.299Z,6.87
2019-05-07T19:04:02.548Z,6.20
2019-05-07T19:06:32.003Z,10.30
2019-05-07T19:09:03.189Z,6.73
2019-05-07T19:11:32.385Z,4.83
2019-05-07T19:14:02.999Z,6.23
2019-05-07T19:16:32.532Z,7.03
2019-05-07T19:19:02.969Z,7.80
2019-05-07T19:21:32.097Z,10.03
2019-05-07T19:24:02.486Z,9.60
2019-05-07T19:26:32.096Z,6.77
2019-05-07T19:29:03.215Z,6.57
2019-05-07T19:31:32.675Z,9.07
2019-05-07T19:34:04.917Z,9.87
2019-05-07T19:36:34.112Z,10.23
2019-05-07T19:39:04.875Z,8.33
2019-05-07T19:41:33.744Z,9.10
2019-05-07T19:44:04.683Z,8.90
2019-05-07T19:46:34.004Z,10.30
2019-05-07T19:49:07.133Z,8.90
2019-05-07T19:51:35.576Z,8.80
2019-05-07T19:54:04.727Z,9.37
2019-05-07T19:56:34.245Z,7.90
2019-05-07T19:59:03.519Z,9.77
2019-05-07T20:01:42.595Z,9.67
2019-05-07T20:04:13.258Z,10.97
2019-05-07T20:06:43.100Z,8.00
2019-05-07T20:09:15.638Z,9.17
2019-05-07T20:11:47.271Z,8.50
2019-05-07T20:14:16.117Z,10.83
2019-05-07T20:16:45.373Z,7.27
2019-05-07T20:19:14.620Z,6.93
2019-05-07T20:21:43.768Z,9.13
2019-05-07T20:24:13.043Z,11.00
2019-05-07T20:26:43.213Z,8.83
2019-05-07T20:29:12.946Z,9.90
2019-05-07T20:31:42.420Z,11.50
2019-05-07T20:34:13.028Z,6.57
2019-05-07T20:36:42.723Z,9.07
2019-05-07T20:39:12.907Z,9.20
2019-05-07T20:41:43.335Z,11.43
2019-05-07T20:44:12.616Z,11.17
2019-05-07T20:46:42.119Z,11.57
2019-05-07T20:49:13.149Z,10.03
2019-05-07T20:51:42.335Z,10.73
2019-05-07T20:54:27.143Z,12.03
2019-05-07T20:57:03.248Z,11.50
2019-05-07T20:59:33.078Z,9.67
2019-05-07T21:02:02.392Z,7.80
2019-05-07T21:04:33.118Z,8.03
2019-05-07T21:07:02.959Z,8.70
2019-05-07T21:09:32.876Z,9.53
2019-05-07T21:12:03.133Z,9.03
2019-05-07T21:14:32.645Z,8.63
2019-05-07T21:17:02.312Z,12.47
2019-05-07T21:19:33.104Z,11.50
2019-05-07T21:22:02.260Z,10.10
2019-05-07T21:24:33.045Z,8.73
2019-05-07T21:27:03.128Z,9.80
2019-05-07T21:29:32.661Z,10.93
2019-05-07T21:32:03.245Z,8.57
2019-05-07T21:34:32.786Z,9.57
2019-05-07T21:37:03.311Z,9.43
2019-05-07T21:39:33.110Z,9.63
2019-05-07T21:42:02.837Z,11.67
2019-05-07T21:44:32.556Z,8.40
2019-05-07T21:47:03.881Z,10.90
2019-05-07T21:49:32.563Z,8.83
2019-05-07T21:52:02.050Z,12.97
2019-05-07T21:54:46.551Z,11.20
2019-05-07T21:57:28.593Z,12.53
2019-05-07T22:00:22.097Z,10.20
2019-05-07T22:02:52.579Z,9.67
2019-05-07T22:05:22.556Z,12.60
2019-05-07T22:07:54.158Z,11.40
2019-05-07T22:10:22.921Z,8.37
2019-05-07T22:13:12.409Z,11.57
2019-05-07T22:15:42.281Z,11.67
2019-05-07T22:18:12.067Z,11.60
2019-05-07T22:20:42.646Z,10.20
2019-05-07T22:23:12.767Z,10.17
2019-05-07T22:25:42.332Z,12.07
2019-05-07T22:28:13.327Z,9.77
2019-05-07T22:31:13.888Z,12.97
2019-05-07T22:33:55.579Z,12.93
2019-05-07T22:36:25.203Z,13.90
2019-05-07T22:38:54.781Z,10.80
2019-05-07T22:41:24.008Z,10.30
2019-05-07T22:43:53.155Z,13.10
2019-05-07T22:46:22.456Z,11.23
2019-05-07T22:48:51.408Z,11.40
2019-05-07T22:51:22.694Z,10.80
2019-05-07T22:53:51.415Z,13.43
2019-05-07T22:56:33.882Z,13.47
2019-05-07T22:58:53.519Z,8.67
2019-05-07T23:01:22.822Z,7.37
2019-05-07T23:03:53.912Z,11.33
2019-05-07T23:06:23.302Z,9.23
2019-05-07T23:08:53.009Z,8.90
2019-05-07T23:11:23.124Z,12.20
2019-05-07T23:13:54.686Z,10.83
2019-05-07T23:16:23.512Z,12.87
2019-05-07T23:18:52.627Z,9.60
2019-05-07T23:21:24.365Z,13.10
2019-05-07T23:23:52.874Z,10.80
2019-05-07T23:26:23.330Z,15.20
2019-05-07T23:28:52.675Z,13.17
2019-05-07T23:31:22.981Z,11.13
2019-05-07T23:33:52.460Z,13.73
2019-05-07T23:36:22.632Z,11.73
2019-05-07T23:38:52.191Z,14.37
2019-05-07T23:41:42.086Z,13.20
2019-05-07T23:44:22.908Z,8.70
2019-05-07T23:46:52.321Z,10.87
2019-05-07T23:49:23.163Z,10.80
2019-05-07T23:51:53.091Z,10.90
2019-05-07T23:54:23.212Z,10.20
2019-05-07T23:57:14.902Z,11.07
2019-05-07T23:59:42.383Z,9.97
